DAAE

Soummam Airport

Béjaïa, Algeria
METAR DAAE 152000Z 11006KT CAVOK 26/25 Q1013
Observed Flight Rules
Jul-15 @ 20:00 UTC (an hour ago) Visual Flight Rules
Wind Visibility Clouds
110° at 6 knots 10,000+ meters
  • Clear skies
Temperatures Readings
Current 26°C / 79°F
Dewpoint 25°C / 77°F
Humidity 94%
Altimeter 29.91" Hg
Pressure 1013 hPa
Elevation 2
METAR DAAE 152000Z 11006KT CAVOK 26/25 Q1013
Observed Flight Rules
Jul-15 @ 20:00 UTC
(an hour ago)
VFR
Wind Visibility
110° at 6 knots 10,000+ meters
Clouds
  • Clear skies
Temperature Dewpoint
26°C / 79°F 25°C / 77°F
Humidity Altimeter Pressure
94% 29.91" Hg 1013 hPa